createdAt,value
2023-03-16T00:00:17.631Z,98881.94
2023-03-16T00:02:44.347Z,98878.16
2023-03-16T00:05:13.109Z,98877.50
2023-03-16T00:07:41.930Z,98875.03
2023-03-16T00:10:12.412Z,98880.94
2023-03-16T00:12:39.904Z,98891.16
2023-03-16T00:15:07.293Z,98884.50
2023-03-16T00:17:34.742Z,98883.34
2023-03-16T00:20:06.534Z,98891.06
2023-03-16T00:22:34.141Z,98892.34
2023-03-16T00:25:00.918Z,98891.22
2023-03-16T00:27:27.870Z,98894.25
2023-03-16T00:29:56.169Z,98899.16
2023-03-16T00:32:32.026Z,98903.69
2023-03-16T00:34:59.597Z,98893.03
2023-03-16T00:37:26.979Z,98896.16
2023-03-16T00:39:56.300Z,98892.59
2023-03-16T00:42:27.735Z,98894.47
2023-03-16T00:44:57.693Z,98900.84
2023-03-16T00:47:27.086Z,98896.63
2023-03-16T00:49:54.147Z,98896.47
2023-03-16T00:52:22.237Z,98906.69
2023-03-16T00:54:49.999Z,98899.97
2023-03-16T00:57:19.048Z,98899.16
2023-03-16T00:59:46.666Z,98900.19
2023-03-16T01:02:14.829Z,98895.94
2023-03-16T01:04:42.400Z,98898.69
2023-03-16T01:07:12.285Z,98899.66
2023-03-16T01:09:40.726Z,98893.78
2023-03-16T01:12:10.960Z,98902.25
2023-03-16T01:14:38.523Z,98901.59
2023-03-16T01:17:08.549Z,98902.72
2023-03-16T01:19:37.838Z,98905.63
2023-03-16T01:22:06.855Z,98898.81
2023-03-16T01:24:34.800Z,98910.31
2023-03-16T01:27:01.729Z,98906.88
2023-03-16T01:29:29.843Z,98913.88
2023-03-16T01:31:56.972Z,98904.41
2023-03-16T01:34:24.033Z,98902.66
2023-03-16T01:36:51.104Z,98906.88
2023-03-16T01:39:18.454Z,98909.25
2023-03-16T01:41:46.722Z,98913.94
2023-03-16T01:44:17.806Z,98916.72
2023-03-16T01:46:47.625Z,98913.72
2023-03-16T01:49:20.643Z,98908.91
2023-03-16T01:51:53.300Z,98900.44
2023-03-16T01:54:31.685Z,98908.38
2023-03-16T01:57:11.720Z,98897.31
2023-03-16T01:59:48.076Z,98906.31
2023-03-16T02:02:19.168Z,98894.63
2023-03-16T02:04:53.561Z,98896.72
2023-03-16T02:07:24.785Z,98904.16
2023-03-16T02:09:56.255Z,98906.38
2023-03-16T02:12:22.967Z,98911.50
2023-03-16T02:14:51.070Z,98915.63
2023-03-16T02:17:21.141Z,98915.47
2023-03-16T02:20:13.651Z,98914.47
2023-03-16T02:22:48.031Z,98917.91
2023-03-16T02:25:19.281Z,98921.06
2023-03-16T02:28:02.467Z,98919.41
2023-03-16T02:30:30.434Z,98921.31
2023-03-16T02:32:57.553Z,98925.44
2023-03-16T02:35:24.256Z,98931.59
2023-03-16T02:37:52.629Z,98933.25
2023-03-16T02:40:22.090Z,98930.78
2023-03-16T02:42:56.578Z,98930.16
2023-03-16T02:45:27.183Z,98923.53
2023-03-16T02:47:55.117Z,98935.75
2023-03-16T02:50:21.703Z,98933.31
2023-03-16T02:52:48.605Z,98934.94
2023-03-16T02:55:15.691Z,98931.75
2023-03-16T02:57:42.392Z,98927.63
2023-03-16T03:00:14.322Z,98940.28
2023-03-16T03:02:41.079Z,98941.25
2023-03-16T03:05:07.981Z,98944.69
2023-03-16T03:07:34.634Z,98956.91
2023-03-16T03:10:05.992Z,98954.16
2023-03-16T03:12:33.752Z,98964.47
2023-03-16T03:15:00.435Z,98956.66
2023-03-16T03:17:30.154Z,98963.91
2023-03-16T03:19:58.878Z,98965.94
2023-03-16T03:22:26.476Z,98959.41
2023-03-16T03:24:53.862Z,98961.94
2023-03-16T03:27:22.654Z,98965.28
2023-03-16T03:29:49.445Z,98966.63
2023-03-16T03:32:16.165Z,98958.00
2023-03-16T03:34:42.778Z,98963.03
2023-03-16T03:37:09.426Z,98961.13
2023-03-16T03:39:36.275Z,98968.66
2023-03-16T03:42:03.012Z,98965.13
2023-03-16T03:44:29.671Z,98968.97
2023-03-16T03:46:56.400Z,98959.09
2023-03-16T03:49:23.036Z,98965.41
2023-03-16T03:51:49.690Z,98958.56
2023-03-16T03:54:16.388Z,98963.63
2023-03-16T03:56:43.270Z,98958.69
2023-03-16T03:59:09.921Z,98966.91
2023-03-16T04:01:36.697Z,98963.22
2023-03-16T04:04:03.476Z,98962.13
2023-03-16T04:06:30.122Z,98969.22
2023-03-16T04:08:56.787Z,98964.88
2023-03-16T04:11:23.447Z,98971.56
2023-03-16T04:13:51.988Z,98975.81
2023-03-16T04:16:18.942Z,98982.94
2023-03-16T04:18:46.311Z,98981.31
2023-03-16T04:21:17.155Z,98981.97
2023-03-16T04:23:44.504Z,98983.63
2023-03-16T04:26:11.538Z,98979.09
2023-03-16T04:28:38.664Z,98985.69
2023-03-16T04:31:07.649Z,98987.59
2023-03-16T04:33:36.501Z,98984.72
2023-03-16T04:36:04.370Z,98985.28
2023-03-16T04:38:33.993Z,98985.69
2023-03-16T04:41:02.550Z,98986.63
2023-03-16T04:43:29.584Z,98990.19
2023-03-16T04:45:56.357Z,98988.44
2023-03-16T04:48:23.057Z,98984.59
2023-03-16T04:50:50.460Z,98986.38
2023-03-16T04:53:17.673Z,98977.19
2023-03-16T04:55:46.816Z,98991.28
2023-03-16T04:58:14.510Z,98987.06
2023-03-16T05:00:41.645Z,98987.59
2023-03-16T05:03:10.415Z,98986.22
2023-03-16T05:05:38.806Z,98988.81
2023-03-16T05:08:06.612Z,98991.13
2023-03-16T05:10:34.724Z,98997.72
2023-03-16T05:13:01.565Z,99008.69
2023-03-16T05:15:28.509Z,99014.69
2023-03-16T05:17:57.074Z,99013.03
2023-03-16T05:20:24.292Z,99015.53
2023-03-16T05:22:51.857Z,99017.03
2023-03-16T05:25:20.474Z,99012.78
2023-03-16T05:27:50.640Z,99016.06
2023-03-16T05:30:18.718Z,99017.72
2023-03-16T05:32:46.058Z,99014.69
2023-03-16T05:35:13.766Z,99011.94
2023-03-16T05:37:42.142Z,99017.44
2023-03-16T05:40:14.342Z,99015.53
2023-03-16T05:42:41.060Z,99018.56
2023-03-16T05:45:08.324Z,99019.34
2023-03-16T05:47:38.380Z,99024.38
2023-03-16T05:50:06.664Z,99022.78
2023-03-16T05:52:33.901Z,99021.97
2023-03-16T05:55:00.716Z,99017.84
2023-03-16T05:57:27.410Z,99016.06
2023-03-16T05:59:54.595Z,99014.69
2023-03-16T06:02:21.390Z,99018.94
2023-03-16T06:04:47.987Z,99018.09
2023-03-16T06:07:14.701Z,99022.22
2023-03-16T06:09:41.405Z,99039.19
2023-03-16T06:12:08.309Z,99029.47
2023-03-16T06:14:35.164Z,99031.81
2023-03-16T06:17:01.933Z,99032.66
2023-03-16T06:19:28.602Z,99033.16
2023-03-16T06:21:55.255Z,99031.28
2023-03-16T06:24:21.989Z,99034.00
2023-03-16T06:26:48.592Z,99030.31
2023-03-16T06:29:15.222Z,99034.97
2023-03-16T06:31:41.896Z,99037.28
2023-03-16T06:34:08.673Z,99046.88
2023-03-16T06:36:35.334Z,99046.09
2023-03-16T06:39:01.949Z,99047.59
2023-03-16T06:41:28.583Z,99051.72
2023-03-16T06:43:55.203Z,99051.72
2023-03-16T06:46:21.883Z,99055.38
2023-03-16T06:48:48.698Z,99046.06
2023-03-16T06:51:16.843Z,99063.75
2023-03-16T06:53:43.636Z,99056.63
2023-03-16T06:56:10.361Z,99058.94
2023-03-16T06:58:37.018Z,99058.66
2023-03-16T07:01:04.824Z,99053.47
2023-03-16T07:03:31.894Z,99056.84
2023-03-16T07:05:58.540Z,99051.09
2023-03-16T07:08:25.222Z,99049.56
2023-03-16T07:10:52.134Z,99055.84
2023-03-16T07:13:18.729Z,99054.72
2023-03-16T07:15:45.626Z,99058.09
2023-03-16T07:18:12.302Z,99049.28
2023-03-16T07:20:39.007Z,99058.03
2023-03-16T07:23:05.688Z,99057.72
2023-03-16T07:25:32.384Z,99055.84
2023-03-16T07:27:59.167Z,99050.38
2023-03-16T07:30:25.981Z,99048.31
2023-03-16T07:32:53.118Z,99050.59
2023-03-16T07:35:20.194Z,99051.16
2023-03-16T07:37:46.852Z,99051.22
2023-03-16T07:40:14.520Z,99042.34
2023-03-16T07:42:41.454Z,99045.44
2023-03-16T07:45:08.734Z,99051.38
2023-03-16T07:47:35.858Z,99047.56
2023-03-16T07:50:02.538Z,99045.97
2023-03-16T07:52:29.282Z,99055.84
2023-03-16T07:54:55.933Z,99058.66
2023-03-16T07:57:22.748Z,99062.50
2023-03-16T07:59:49.391Z,99060.97
2023-03-16T08:02:18.792Z,99061.03
2023-03-16T08:04:45.890Z,99066.28
2023-03-16T08:07:14.422Z,99063.88
2023-03-16T08:09:41.758Z,99063.09
2023-03-16T08:12:09.623Z,99068.72
2023-03-16T08:14:37.278Z,99069.41
2023-03-16T08:17:05.904Z,99067.16
2023-03-16T08:19:33.661Z,99073.56
2023-03-16T08:22:02.117Z,99073.59
2023-03-16T08:24:31.107Z,99071.84
2023-03-16T08:26:58.962Z,99066.94
2023-03-16T08:29:26.381Z,99074.34
2023-03-16T08:31:56.353Z,99063.91
2023-03-16T08:34:27.798Z,99068.47
2023-03-16T08:36:55.433Z,99070.28
2023-03-16T08:39:22.658Z,99068.00
2023-03-16T08:41:49.632Z,99071.94
2023-03-16T08:44:17.503Z,99077.31
2023-03-16T08:46:44.792Z,99071.94
2023-03-16T08:49:13.006Z,99066.00
2023-03-16T08:51:39.678Z,99061.75
2023-03-16T08:54:07.522Z,99059.13
2023-03-16T08:56:34.252Z,99060.25
2023-03-16T08:59:00.889Z,99068.56
2023-03-16T09:01:27.667Z,99070.34
2023-03-16T09:03:55.012Z,99074.75
2023-03-16T09:06:22.448Z,99069.84
2023-03-16T09:08:49.198Z,99069.59
2023-03-16T09:11:18.826Z,99065.31
2023-03-16T09:13:47.320Z,99064.13
2023-03-16T09:16:15.824Z,99067.22
2023-03-16T09:18:43.743Z,99070.16
2023-03-16T09:21:13.824Z,99071.25
2023-03-16T09:23:42.702Z,99072.50
2023-03-16T09:26:12.553Z,99074.03
2023-03-16T09:28:42.077Z,99071.41
2023-03-16T09:31:15.531Z,99072.19
2023-03-16T09:33:42.824Z,99075.00
2023-03-16T09:36:13.416Z,99078.19
2023-03-16T09:38:41.264Z,99072.81
2023-03-16T09:41:22.496Z,99070.09
2023-03-16T09:44:00.216Z,99063.53
2023-03-16T09:46:28.700Z,99074.28
2023-03-16T09:48:59.756Z,99063.91
2023-03-16T09:51:36.750Z,99064.84
2023-03-16T09:54:13.988Z,99071.97
2023-03-16T09:56:43.292Z,99066.41
2023-03-16T09:59:13.575Z,99058.97
2023-03-16T10:01:53.870Z,99068.66
2023-03-16T10:04:32.326Z,99068.59
2023-03-16T10:07:18.511Z,99071.75
2023-03-16T10:09:57.090Z,99070.59
2023-03-16T10:12:30.831Z,99062.50
2023-03-16T10:15:15.081Z,99069.22
2023-03-16T10:17:51.462Z,99057.53
2023-03-16T10:20:20.776Z,99061.94
2023-03-16T10:22:52.465Z,99055.31
2023-03-16T10:25:23.592Z,99060.34
2023-03-16T10:27:50.812Z,99044.81
2023-03-16T10:30:28.865Z,99042.09
2023-03-16T10:33:00.607Z,99043.25
2023-03-16T10:35:57.758Z,99047.41
2023-03-16T10:38:33.630Z,99040.50
2023-03-16T10:41:00.809Z,99045.50
2023-03-16T10:43:29.686Z,99044.25
2023-03-16T10:46:02.488Z,99036.41
2023-03-16T10:48:34.854Z,99028.75
2023-03-16T10:51:07.084Z,99029.06
2023-03-16T10:53:36.783Z,99024.84
2023-03-16T10:56:13.823Z,99028.53
2023-03-16T10:58:43.331Z,99017.38
2023-03-16T11:01:18.066Z,99026.38
2023-03-16T11:03:51.179Z,99025.13
2023-03-16T11:06:30.630Z,99019.09
2023-03-16T11:09:14.421Z,99013.47
2023-03-16T11:11:49.380Z,99024.28
2023-03-16T11:14:21.052Z,99014.88
2023-03-16T11:17:02.625Z,99004.78
2023-03-16T11:19:33.026Z,99010.78
2023-03-16T11:22:10.361Z,99002.72
2023-03-16T11:24:49.429Z,99001.41
2023-03-16T11:27:24.980Z,99002.06
2023-03-16T11:30:14.101Z,98995.59
2023-03-16T11:32:45.175Z,98986.88
2023-03-16T11:35:17.414Z,98988.03
2023-03-16T11:38:14.094Z,98982.06
2023-03-16T11:41:02.807Z,98976.47
2023-03-16T11:43:59.953Z,98978.47
2023-03-16T11:46:27.458Z,98970.53
2023-03-16T11:49:10.489Z,98964.13
2023-03-16T11:51:54.597Z,98958.88
2023-03-16T11:54:42.883Z,98959.94
2023-03-16T11:57:42.489Z,98943.88
2023-03-16T12:00:40.385Z,98942.66
2023-03-16T12:03:24.817Z,98939.41
2023-03-16T12:06:22.113Z,98931.06
2023-03-16T12:09:12.482Z,98928.28
2023-03-16T12:11:47.080Z,98924.78
2023-03-16T12:14:22.806Z,98921.53
2023-03-16T12:17:02.451Z,98914.56
2023-03-16T12:19:45.859Z,98904.22
2023-03-16T12:22:21.593Z,98905.25
2023-03-16T12:24:48.942Z,98910.97
2023-03-16T12:27:24.938Z,98903.44
2023-03-16T12:30:15.573Z,98903.66
2023-03-16T12:33:00.861Z,98896.78
2023-03-16T12:35:42.754Z,98894.91
2023-03-16T12:38:32.749Z,98893.72
2023-03-16T12:41:00.332Z,98896.34
2023-03-16T12:43:49.338Z,98885.81
2023-03-16T12:46:47.916Z,98886.59
2023-03-16T12:49:15.275Z,98874.81
2023-03-16T12:51:44.052Z,98878.50
2023-03-16T12:54:21.331Z,98880.09
2023-03-16T12:56:50.550Z,98871.16
2023-03-16T12:59:21.011Z,98873.16
2023-03-16T13:01:52.124Z,98878.47
2023-03-16T13:04:30.914Z,98877.06
2023-03-16T13:07:16.324Z,98865.84
2023-03-16T13:09:49.483Z,98871.56
2023-03-16T13:12:36.911Z,98864.03
2023-03-16T13:15:25.714Z,98865.66
2023-03-16T13:18:05.436Z,98869.31
2023-03-16T13:20:34.923Z,98865.44
2023-03-16T13:23:24.038Z,98863.63
2023-03-16T13:26:01.726Z,98859.97
2023-03-16T13:28:31.657Z,98857.72
2023-03-16T13:30:58.683Z,98854.03
2023-03-16T13:33:28.169Z,98855.88
2023-03-16T13:35:57.505Z,98849.53
2023-03-16T13:38:28.388Z,98854.19
2023-03-16T13:40:58.036Z,98844.47
2023-03-16T13:43:28.931Z,98854.00
2023-03-16T13:45:55.874Z,98846.53
2023-03-16T13:48:22.834Z,98836.91
2023-03-16T13:50:57.702Z,98837.50
2023-03-16T13:53:29.458Z,98837.50
2023-03-16T13:55:59.153Z,98840.78
2023-03-16T13:58:34.906Z,98834.69
2023-03-16T14:01:03.532Z,98836.69
2023-03-16T14:03:36.037Z,98842.94
2023-03-16T14:06:04.697Z,98837.06
2023-03-16T14:08:32.526Z,98835.25
2023-03-16T14:11:01.487Z,98833.19
2023-03-16T14:13:28.994Z,98832.19
2023-03-16T14:15:58.054Z,98829.75
2023-03-16T14:18:37.751Z,98821.63
2023-03-16T14:21:09.307Z,98822.63
2023-03-16T14:23:41.277Z,98813.47
2023-03-16T14:26:13.840Z,98811.59
2023-03-16T14:28:41.608Z,98812.13
2023-03-16T14:31:12.522Z,98811.56
2023-03-16T14:33:42.857Z,98805.72
2023-03-16T14:36:14.953Z,98803.88
2023-03-16T14:38:44.205Z,98800.19
2023-03-16T14:41:11.835Z,98804.25
2023-03-16T14:43:45.143Z,98797.66
2023-03-16T14:46:15.992Z,98803.00
2023-03-16T14:48:42.929Z,98795.31
2023-03-16T14:51:14.312Z,98803.00
2023-03-16T14:53:41.160Z,98803.63
2023-03-16T14:56:13.630Z,98801.38
2023-03-16T14:58:41.814Z,98797.78
2023-03-16T15:01:15.040Z,98798.00
2023-03-16T15:03:43.412Z,98790.66
2023-03-16T15:06:10.498Z,98785.22
2023-03-16T15:08:44.476Z,98796.72
2023-03-16T15:11:11.650Z,98784.31
2023-03-16T15:13:56.614Z,98780.66
2023-03-16T15:16:23.494Z,98778.16
2023-03-16T15:18:51.853Z,98773.47
2023-03-16T15:21:25.211Z,98768.16
2023-03-16T15:23:52.189Z,98761.44
2023-03-16T15:26:26.326Z,98764.13
2023-03-16T15:28:54.498Z,98759.41
2023-03-16T15:31:21.521Z,98743.56
2023-03-16T15:33:48.140Z,98748.97
2023-03-16T15:36:18.254Z,98743.88
2023-03-16T15:38:48.843Z,98742.28
2023-03-16T15:41:16.142Z,98745.72
2023-03-16T15:43:45.503Z,98743.06
2023-03-16T15:46:12.318Z,98745.19
2023-03-16T15:48:39.497Z,98744.66
2023-03-16T15:51:14.152Z,98741.84
2023-03-16T15:53:46.899Z,98747.94
2023-03-16T15:56:17.519Z,98747.34
2023-03-16T15:58:46.801Z,98745.53
2023-03-16T16:01:23.111Z,98742.09
2023-03-16T16:03:53.227Z,98735.19
2023-03-16T16:06:20.813Z,98734.16
2023-03-16T16:08:47.578Z,98736.00
2023-03-16T16:11:22.368Z,98738.66
2023-03-16T16:13:49.234Z,98739.88
2023-03-16T16:16:18.826Z,98749.22
2023-03-16T16:18:47.396Z,98739.88
2023-03-16T16:21:23.024Z,98733.56
2023-03-16T16:23:51.682Z,98743.13
2023-03-16T16:26:55.174Z,98747.38
2023-03-16T16:29:26.702Z,98739.03
2023-03-16T16:31:53.756Z,98745.56
2023-03-16T16:34:24.346Z,98747.16
2023-03-16T16:36:54.626Z,98746.94
2023-03-16T16:39:21.962Z,98746.72
2023-03-16T16:41:51.369Z,98746.94
2023-03-16T16:44:23.625Z,98743.06
2023-03-16T16:46:52.124Z,98744.69
2023-03-16T16:49:23.813Z,98744.88
2023-03-16T16:51:52.200Z,98747.06
2023-03-16T16:54:22.604Z,98751.50
2023-03-16T16:56:52.162Z,98756.75
2023-03-16T16:59:21.463Z,98746.81
2023-03-16T17:01:51.851Z,98755.94
2023-03-16T17:04:23.498Z,98761.97
2023-03-16T17:06:52.375Z,98756.09
2023-03-16T17:09:19.008Z,98754.44
2023-03-16T17:11:45.941Z,98751.75
2023-03-16T17:14:18.778Z,98747.25
2023-03-16T17:16:48.449Z,98747.44
2023-03-16T17:19:24.976Z,98752.69
2023-03-16T17:21:52.056Z,98751.19
2023-03-16T17:24:18.990Z,98751.38
2023-03-16T17:26:48.982Z,98752.38
2023-03-16T17:29:21.149Z,98753.56
2023-03-16T17:31:49.239Z,98751.53
2023-03-16T17:34:18.919Z,98758.75
2023-03-16T17:36:46.854Z,98752.44
2023-03-16T17:39:23.695Z,98752.44
2023-03-16T17:42:07.729Z,98753.44
2023-03-16T17:44:38.490Z,98756.97
2023-03-16T17:47:14.016Z,98754.97
2023-03-16T17:49:41.025Z,98756.13
2023-03-16T17:52:15.339Z,98747.53
2023-03-16T17:54:42.263Z,98735.56
2023-03-16T17:57:17.223Z,98738.84
2023-03-16T17:59:46.440Z,98745.28
2023-03-16T18:02:43.614Z,98740.78
2023-03-16T18:05:18.944Z,98745.25
2023-03-16T18:07:46.720Z,98750.31
2023-03-16T18:10:20.221Z,98752.69
2023-03-16T18:12:49.950Z,98757.97
2023-03-16T18:15:18.680Z,98749.06
2023-03-16T18:17:46.194Z,98755.88
2023-03-16T18:20:23.172Z,98756.91
2023-03-16T18:22:50.452Z,98753.81
2023-03-16T18:25:30.194Z,98749.50
2023-03-16T18:27:57.676Z,98756.94
2023-03-16T18:30:26.045Z,98760.34
2023-03-16T18:32:53.618Z,98754.69
2023-03-16T18:35:21.308Z,98756.69
2023-03-16T18:37:48.814Z,98750.88
2023-03-16T18:40:18.218Z,98753.25
2023-03-16T18:42:45.230Z,98753.25
2023-03-16T18:45:13.824Z,98762.47
2023-03-16T18:47:43.925Z,98763.44
2023-03-16T18:50:19.814Z,98762.00
2023-03-16T18:52:46.852Z,98770.72
2023-03-16T18:55:17.544Z,98762.19
2023-03-16T18:57:46.590Z,98767.66
2023-03-16T19:00:16.191Z,98764.75
2023-03-16T19:02:44.250Z,98769.91
2023-03-16T19:05:23.538Z,98769.38
2023-03-16T19:07:52.589Z,98766.31
2023-03-16T19:10:28.892Z,98761.69
2023-03-16T19:12:56.326Z,98761.78
2023-03-16T19:15:24.552Z,98768.88
2023-03-16T19:17:52.034Z,98761.06
2023-03-16T19:20:24.082Z,98766.53
2023-03-16T19:23:00.405Z,98762.09
2023-03-16T19:25:32.221Z,98759.22
2023-03-16T19:28:00.096Z,98764.28
2023-03-16T19:30:29.450Z,98751.84
2023-03-16T19:32:57.093Z,98758.94
2023-03-16T19:35:36.855Z,98763.53
2023-03-16T19:38:11.559Z,98760.66
2023-03-16T19:40:38.235Z,98764.03
2023-03-16T19:43:05.072Z,98767.66
2023-03-16T19:45:33.961Z,98762.59
2023-03-16T19:48:01.030Z,98761.94
2023-03-16T19:50:28.819Z,98762.69
2023-03-16T19:52:58.993Z,98762.03
2023-03-16T19:55:31.858Z,98754.34
2023-03-16T19:58:06.020Z,98751.06
2023-03-16T20:00:33.225Z,98748.00
2023-03-16T20:03:00.235Z,98740.19
2023-03-16T20:05:30.292Z,98731.53
2023-03-16T20:07:58.615Z,98739.22
2023-03-16T20:10:29.067Z,98742.41
2023-03-16T20:12:58.589Z,98735.59
2023-03-16T20:15:29.076Z,98733.25
2023-03-16T20:17:55.933Z,98740.94
2023-03-16T20:20:26.816Z,98736.97
2023-03-16T20:22:56.633Z,98735.50
2023-03-16T20:25:26.247Z,98732.41
2023-03-16T20:27:56.532Z,98735.22
2023-03-16T20:30:23.820Z,98735.41
2023-03-16T20:32:51.178Z,98728.00
2023-03-16T20:35:21.588Z,98731.34
2023-03-16T20:37:52.957Z,98716.38
2023-03-16T20:40:20.981Z,98719.38
2023-03-16T20:42:48.366Z,98723.47
2023-03-16T20:45:26.126Z,98720.00
2023-03-16T20:47:53.762Z,98728.44
2023-03-16T20:50:30.751Z,98724.38
2023-03-16T20:52:57.507Z,98720.09
2023-03-16T20:55:27.143Z,98733.03
2023-03-16T20:57:55.376Z,98728.16
2023-03-16T21:00:26.721Z,98728.72
2023-03-16T21:02:54.808Z,98732.34
2023-03-16T21:05:22.088Z,98739.56
2023-03-16T21:07:48.845Z,98736.31
2023-03-16T21:10:19.413Z,98727.59
2023-03-16T21:12:50.963Z,98723.38
2023-03-16T21:15:24.999Z,98713.22
2023-03-16T21:17:56.889Z,98719.91
2023-03-16T21:20:25.342Z,98724.53
2023-03-16T21:22:52.104Z,98723.38
2023-03-16T21:25:23.497Z,98716.31
2023-03-16T21:27:52.756Z,98723.53
2023-03-16T21:30:33.601Z,98728.78
2023-03-16T21:33:02.005Z,98718.66
2023-03-16T21:35:33.703Z,98717.19
2023-03-16T21:38:07.464Z,98711.47
2023-03-16T21:40:34.101Z,98707.25
2023-03-16T21:43:01.107Z,98707.59
2023-03-16T21:45:28.038Z,98705.50
2023-03-16T21:47:55.826Z,98705.03
2023-03-16T21:50:32.225Z,98700.97
2023-03-16T21:52:58.967Z,98698.91
2023-03-16T21:55:29.251Z,98691.81
2023-03-16T21:57:57.700Z,98698.91
2023-03-16T22:00:27.581Z,98683.84
2023-03-16T22:02:56.473Z,98683.56
2023-03-16T22:05:39.869Z,98690.47
2023-03-16T22:08:14.549Z,98688.81
2023-03-16T22:10:42.030Z,98686.38
2023-03-16T22:13:09.707Z,98680.31
2023-03-16T22:15:36.907Z,98677.06
2023-03-16T22:18:09.502Z,98674.94
2023-03-16T22:20:36.574Z,98668.91
2023-03-16T22:23:04.036Z,98675.78
2023-03-16T22:25:31.277Z,98674.50
2023-03-16T22:27:58.152Z,98671.41
2023-03-16T22:30:27.890Z,98661.09
2023-03-16T22:32:58.752Z,98657.41
2023-03-16T22:35:40.854Z,98663.81
2023-03-16T22:38:12.546Z,98655.28
2023-03-16T22:40:41.403Z,98651.03
2023-03-16T22:43:14.292Z,98656.63
2023-03-16T22:45:41.353Z,98660.44
2023-03-16T22:48:18.962Z,98665.84
2023-03-16T22:50:46.676Z,98662.56
2023-03-16T22:53:20.988Z,98658.69
2023-03-16T22:55:49.248Z,98652.63
2023-03-16T22:58:35.784Z,98665.44
2023-03-16T23:01:17.184Z,98668.25
2023-03-16T23:03:45.912Z,98667.41
2023-03-16T23:06:18.984Z,98674.19
2023-03-16T23:08:46.028Z,98668.66
2023-03-16T23:11:18.781Z,98666.75
2023-03-16T23:13:46.529Z,98672.31
2023-03-16T23:16:28.460Z,98658.91
2023-03-16T23:18:55.495Z,98662.25
2023-03-16T23:21:24.595Z,98658.34
2023-03-16T23:24:02.997Z,98658.34
2023-03-16T23:26:30.584Z,98657.03
2023-03-16T23:28:57.767Z,98655.06
2023-03-16T23:31:27.170Z,98657.69
2023-03-16T23:33:54.223Z,98652.28
2023-03-16T23:36:24.498Z,98654.09
2023-03-16T23:38:51.712Z,98649.88
2023-03-16T23:41:22.291Z,98648.78
2023-03-16T23:43:50.735Z,98653.19
2023-03-16T23:46:19.681Z,98648.28
2023-03-16T23:48:48.806Z,98656.34
2023-03-16T23:51:34.527Z,98656.66
2023-03-16T23:54:01.378Z,98654.56
2023-03-16T23:56:28.096Z,98662.59
2023-03-16T23:58:54.878Z,98659.84
